createdAt,value
2022-09-15T00:00:26.281Z,59.70
2022-09-15T00:02:53.134Z,59.60
2022-09-15T00:05:20.034Z,59.80
2022-09-15T00:07:46.925Z,59.80
2022-09-15T00:10:13.937Z,58.50
2022-09-15T00:12:40.676Z,58.80
2022-09-15T00:15:07.922Z,59.00
2022-09-15T00:17:34.820Z,57.80
2022-09-15T00:20:01.759Z,58.60
2022-09-15T00:22:28.495Z,59.50
2022-09-15T00:24:55.230Z,59.60
2022-09-15T00:27:21.950Z,59.50
2022-09-15T00:29:48.711Z,59.50
2022-09-15T00:32:15.457Z,59.70
2022-09-15T00:34:42.242Z,59.80
2022-09-15T00:37:08.978Z,59.80
2022-09-15T00:39:35.711Z,59.90
2022-09-15T00:42:03.545Z,60.00
2022-09-15T00:44:36.466Z,60.60
2022-09-15T00:47:18.612Z,60.30
2022-09-15T00:49:46.198Z,60.50
2022-09-15T00:52:17.731Z,60.60
2022-09-15T00:54:46.776Z,60.70
2022-09-15T00:57:21.358Z,60.90
2022-09-15T00:59:48.083Z,61.00
2022-09-15T01:02:25.316Z,61.20
2022-09-15T01:04:56.086Z,61.20
2022-09-15T01:07:27.619Z,61.40
2022-09-15T01:09:56.809Z,61.80
2022-09-15T01:12:24.027Z,62.30
2022-09-15T01:14:50.791Z,62.60
2022-09-15T01:20:21.005Z,62.70
2022-09-15T01:23:08.203Z,62.80
2022-09-15T01:25:53.827Z,63.00
2022-09-15T01:28:26.981Z,63.30
2022-09-15T01:30:59.471Z,63.50
2022-09-15T01:33:31.300Z,63.30
2022-09-15T01:36:04.180Z,63.50
2022-09-15T01:38:33.278Z,63.40
2022-09-15T01:41:03.019Z,63.60
2022-09-15T01:43:29.935Z,63.80
2022-09-15T01:45:56.700Z,63.90
2022-09-15T01:48:24.306Z,63.80
2022-09-15T01:50:54.214Z,64.00
2022-09-15T01:53:21.192Z,64.40
2022-09-15T01:55:55.926Z,64.90
2022-09-15T01:58:22.779Z,65.50
2022-09-15T02:00:51.353Z,65.60
2022-09-15T02:03:22.745Z,65.90
2022-09-15T02:06:02.778Z,66.30
2022-09-15T02:08:42.841Z,66.30
2022-09-15T02:11:13.023Z,66.90
2022-09-15T02:13:42.961Z,66.60
2022-09-15T02:16:19.848Z,66.50
2022-09-15T02:18:51.264Z,66.70
2022-09-15T02:21:29.599Z,66.30
2022-09-15T02:23:57.502Z,66.80
2022-09-15T02:26:25.507Z,67.30
2022-09-15T02:28:52.453Z,67.50
2022-09-15T02:31:19.301Z,67.50
2022-09-15T02:33:50.055Z,67.80
2022-09-15T02:36:18.298Z,67.90
2022-09-15T02:38:46.494Z,68.30
2022-09-15T02:41:14.342Z,68.40
2022-09-15T02:43:44.843Z,69.00
2022-09-15T02:46:11.628Z,69.20
2022-09-15T02:48:38.464Z,69.50
2022-09-15T02:51:05.239Z,69.90
2022-09-15T02:53:31.997Z,70.10
2022-09-15T02:55:58.808Z,70.70
2022-09-15T02:58:25.680Z,70.90
2022-09-15T03:00:53.092Z,71.60
2022-09-15T03:03:22.091Z,72.50
2022-09-15T03:05:48.844Z,72.90
2022-09-15T03:08:15.640Z,73.20
2022-09-15T03:10:42.368Z,73.50
2022-09-15T03:13:09.107Z,73.40
2022-09-15T03:15:35.896Z,73.50
2022-09-15T03:18:02.621Z,73.60
2022-09-15T03:20:30.397Z,73.50
2022-09-15T03:22:57.190Z,73.60
2022-09-15T03:25:26.931Z,73.70
2022-09-15T03:27:53.751Z,73.70
2022-09-15T03:30:20.543Z,73.90
2022-09-15T03:32:47.484Z,74.30
2022-09-15T03:35:14.486Z,74.50
2022-09-15T03:37:41.279Z,74.90
2022-09-15T03:40:08.604Z,75.10
2022-09-15T03:42:35.429Z,75.40
2022-09-15T03:45:02.176Z,75.60
2022-09-15T03:47:28.965Z,75.80
2022-09-15T03:49:55.736Z,76.10
2022-09-15T03:52:22.459Z,75.70
2022-09-15T03:54:49.422Z,75.70
2022-09-15T03:57:16.164Z,75.60
2022-09-15T03:59:42.892Z,75.60
2022-09-15T04:02:09.676Z,75.30
2022-09-15T04:04:36.899Z,74.50
2022-09-15T04:07:03.665Z,74.70
2022-09-15T04:09:31.504Z,74.40
2022-09-15T04:11:58.232Z,74.40
2022-09-15T04:14:24.977Z,73.70
2022-09-15T04:16:52.394Z,72.80
2022-09-15T04:19:19.226Z,72.70
2022-09-15T04:21:47.479Z,72.50
2022-09-15T04:24:14.197Z,72.10
2022-09-15T04:26:40.929Z,71.90
2022-09-15T04:29:11.290Z,71.60
2022-09-15T04:31:38.044Z,71.40
2022-09-15T04:34:05.035Z,71.20
2022-09-15T04:36:31.802Z,70.10
2022-09-15T04:38:58.559Z,70.20
2022-09-15T04:41:26.146Z,70.20
2022-09-15T04:43:53.026Z,70.00
2022-09-15T04:46:19.924Z,69.70
2022-09-15T04:48:46.781Z,69.20
2022-09-15T04:51:14.572Z,69.00
2022-09-15T04:53:41.852Z,68.40
2022-09-15T04:56:13.071Z,68.10
2022-09-15T04:58:43.524Z,67.80
2022-09-15T05:01:11.293Z,67.30
2022-09-15T05:03:38.161Z,66.10
2022-09-15T05:06:06.017Z,64.50
2022-09-15T05:08:32.771Z,63.90
2022-09-15T05:11:00.556Z,62.70
2022-09-15T05:13:29.274Z,61.90
2022-09-15T05:15:56.115Z,61.10
2022-09-15T05:18:22.896Z,60.50
2022-09-15T05:20:49.664Z,60.20
2022-09-15T05:23:16.370Z,59.80
2022-09-15T05:25:43.099Z,59.20
2022-09-15T05:28:09.829Z,59.00
2022-09-15T05:30:43.643Z,59.50
2022-09-15T05:33:11.162Z,59.60
2022-09-15T05:35:37.965Z,59.90
2022-09-15T05:38:04.704Z,60.10
2022-09-15T05:40:32.735Z,60.00
2022-09-15T05:42:59.495Z,59.80
2022-09-15T05:45:26.238Z,59.10
2022-09-15T05:47:52.957Z,58.60
2022-09-15T05:50:19.743Z,58.70
2022-09-15T05:52:50.662Z,58.60
2022-09-15T05:55:17.379Z,58.50
2022-09-15T05:57:44.798Z,58.80
2022-09-15T06:00:11.963Z,59.50
2022-09-15T06:02:38.756Z,59.60
2022-09-15T06:05:05.914Z,60.50
2022-09-15T06:07:32.665Z,61.80
2022-09-15T06:09:59.416Z,61.90
2022-09-15T06:12:26.899Z,62.70
2022-09-15T06:14:53.904Z,63.50
2022-09-15T06:17:22.279Z,63.90
2022-09-15T06:19:49.169Z,64.70
2022-09-15T06:22:15.887Z,65.40
2022-09-15T06:24:42.628Z,66.70
2022-09-15T06:27:09.523Z,67.90
2022-09-15T06:29:37.103Z,68.30
2022-09-15T06:32:05.195Z,69.40
2022-09-15T06:34:32.997Z,70.10
2022-09-15T06:36:59.833Z,72.50
2022-09-15T06:39:26.630Z,73.10
2022-09-15T06:42:02.172Z,75.20
2022-09-15T06:44:30.423Z,75.40
2022-09-15T06:46:57.166Z,77.30
2022-09-15T06:49:23.944Z,78.50
2022-09-15T06:51:50.737Z,79.90
2022-09-15T06:54:17.626Z,80.10
2022-09-15T06:56:44.394Z,82.60
2022-09-15T06:59:11.566Z,84.70
2022-09-15T07:01:38.337Z,85.40
2022-09-15T07:04:05.691Z,90.00
2022-09-15T07:06:32.569Z,93.40
2022-09-15T07:08:59.427Z,96.90
2022-09-15T07:11:26.319Z,99.90
2022-09-15T07:13:53.191Z,99.90
2022-09-15T07:16:20.232Z,99.90
2022-09-15T07:18:47.303Z,99.90
2022-09-15T07:21:14.809Z,99.90
2022-09-15T07:23:41.619Z,99.90
2022-09-15T07:26:08.401Z,99.90
2022-09-15T07:28:35.214Z,99.90
2022-09-15T07:31:01.989Z,99.90
2022-09-15T07:33:28.948Z,99.90
2022-09-15T07:35:55.766Z,99.90
2022-09-15T07:38:22.501Z,99.90
2022-09-15T07:40:49.415Z,99.90
2022-09-15T07:43:16.301Z,99.90
2022-09-15T07:45:43.111Z,99.90
2022-09-15T07:48:09.895Z,99.90
2022-09-15T07:50:36.665Z,99.90
2022-09-15T07:53:03.735Z,99.90
2022-09-15T07:55:30.518Z,99.90
2022-09-15T07:57:58.514Z,99.90
2022-09-15T08:00:25.713Z,99.10
2022-09-15T08:02:52.573Z,97.90
2022-09-15T08:05:19.332Z,98.00
2022-09-15T08:07:46.064Z,95.20
2022-09-15T08:10:12.904Z,93.00
2022-09-15T08:12:40.897Z,90.30
2022-09-15T08:15:07.812Z,90.20
2022-09-15T08:17:34.656Z,89.00
2022-09-15T08:20:01.762Z,85.00
2022-09-15T08:22:28.519Z,79.20
2022-09-15T08:24:55.288Z,76.30
2022-09-15T08:27:22.323Z,74.70
2022-09-15T08:29:49.294Z,73.80
2022-09-15T08:32:16.033Z,73.80
2022-09-15T08:34:42.760Z,72.80
2022-09-15T08:37:09.493Z,70.50
2022-09-15T08:39:36.378Z,72.10
2022-09-15T08:42:03.178Z,68.80
2022-09-15T08:44:41.954Z,68.20
2022-09-15T08:47:21.001Z,66.80
2022-09-15T08:49:52.093Z,65.50
2022-09-15T08:52:20.754Z,64.00
2022-09-15T08:54:47.605Z,63.40
2022-09-15T08:57:14.729Z,63.40
2022-09-15T08:59:41.458Z,61.80
2022-09-15T09:02:27.287Z,60.90
2022-09-15T09:04:54.147Z,61.20
2022-09-15T09:07:20.901Z,61.50
2022-09-15T09:09:57.611Z,58.50
2022-09-15T09:12:33.565Z,57.40
2022-09-15T09:15:00.294Z,57.90
2022-09-15T09:17:31.559Z,57.40
2022-09-15T09:20:16.670Z,54.70
2022-09-15T09:22:44.204Z,53.60
2022-09-15T09:25:26.647Z,52.90
2022-09-15T09:27:54.133Z,52.20
2022-09-15T09:30:23.813Z,53.10
2022-09-15T09:33:09.194Z,53.30
2022-09-15T09:35:42.953Z,54.40
2022-09-15T09:38:10.194Z,54.90
2022-09-15T09:40:37.235Z,54.60
2022-09-15T09:43:04.051Z,55.40
2022-09-15T09:45:30.993Z,55.80
2022-09-15T09:48:13.045Z,56.40
2022-09-15T09:50:43.187Z,56.40
2022-09-15T09:53:20.514Z,56.80
2022-09-15T09:55:47.529Z,56.90
2022-09-15T09:58:18.383Z,57.10
2022-09-15T10:00:45.331Z,57.00
2022-09-15T10:03:15.506Z,57.20
2022-09-15T10:05:42.395Z,56.90
2022-09-15T10:08:19.465Z,56.90
2022-09-15T10:10:49.831Z,56.50
2022-09-15T10:13:16.589Z,55.90
2022-09-15T10:15:43.456Z,55.20
2022-09-15T10:18:22.719Z,55.20
2022-09-15T10:20:49.907Z,55.70
2022-09-15T10:23:16.703Z,56.00
2022-09-15T10:25:58.661Z,55.40
2022-09-15T10:28:26.347Z,55.30
2022-09-15T10:31:03.921Z,55.00
2022-09-15T10:33:30.750Z,55.10
2022-09-15T10:36:17.638Z,54.30
2022-09-15T10:39:02.725Z,53.50
2022-09-15T10:41:32.494Z,52.70
2022-09-15T10:44:23.097Z,51.80
2022-09-15T10:46:55.938Z,52.40
2022-09-15T10:49:25.819Z,52.10
2022-09-15T10:52:01.920Z,51.70
2022-09-15T10:54:34.728Z,52.30
2022-09-15T10:57:22.464Z,51.90
2022-09-15T10:59:51.735Z,53.30
2022-09-15T11:02:22.774Z,53.50
2022-09-15T11:04:54.656Z,53.30
2022-09-15T11:07:27.543Z,52.30
2022-09-15T11:09:57.641Z,51.80
2022-09-15T11:12:37.298Z,50.80
2022-09-15T11:15:07.812Z,52.30
2022-09-15T11:17:43.955Z,52.60
2022-09-15T11:20:18.337Z,53.00
2022-09-15T11:22:49.794Z,53.00
2022-09-15T11:25:20.766Z,52.60
2022-09-15T11:27:54.284Z,52.00
2022-09-15T11:30:24.639Z,52.60
2022-09-15T11:32:57.315Z,52.50
2022-09-15T11:35:43.934Z,51.10
2022-09-15T11:38:22.864Z,51.50
2022-09-15T11:41:10.901Z,50.70
2022-09-15T11:43:57.909Z,50.20
2022-09-15T11:46:47.339Z,50.00
2022-09-15T11:49:17.055Z,49.60
2022-09-15T11:51:45.638Z,49.80
2022-09-15T11:54:13.745Z,50.60
2022-09-15T11:56:46.605Z,49.50
2022-09-15T11:59:27.119Z,49.00
2022-09-15T12:01:57.196Z,49.00
2022-09-15T12:04:33.598Z,48.70
2022-09-15T12:07:05.225Z,49.10
2022-09-15T12:09:32.068Z,48.30
2022-09-15T12:12:00.891Z,48.80
2022-09-15T12:14:32.594Z,48.20
2022-09-15T12:16:59.361Z,48.40
2022-09-15T12:19:26.099Z,49.10
2022-09-15T12:21:54.206Z,49.40
2022-09-15T12:24:27.061Z,48.90
2022-09-15T12:26:53.784Z,49.50
2022-09-15T12:29:26.785Z,48.70
2022-09-15T12:32:13.502Z,48.50
2022-09-15T12:34:40.273Z,47.70
2022-09-15T12:37:07.849Z,47.60
2022-09-15T12:39:38.330Z,48.20
2022-09-15T12:42:06.613Z,47.20
2022-09-15T12:44:42.460Z,47.40
2022-09-15T12:47:24.599Z,46.50
2022-09-15T12:49:51.776Z,47.20
2022-09-15T12:52:19.548Z,47.60
2022-09-15T12:54:50.077Z,47.00
2022-09-15T12:57:19.216Z,47.00
2022-09-15T12:59:45.951Z,46.70
2022-09-15T13:02:32.697Z,46.80
2022-09-15T13:04:59.781Z,47.00
2022-09-15T13:07:33.701Z,47.80
2022-09-15T13:10:16.492Z,47.80
2022-09-15T13:12:44.240Z,48.10
2022-09-15T13:15:13.329Z,47.60
2022-09-15T13:17:41.147Z,47.80
2022-09-15T13:20:09.184Z,48.00
2022-09-15T13:22:36.909Z,48.50
2022-09-15T13:25:15.912Z,48.60
2022-09-15T13:27:46.296Z,47.90
2022-09-15T13:30:19.245Z,48.50
2022-09-15T13:32:46.621Z,48.60
2022-09-15T13:35:26.975Z,48.50
2022-09-15T13:40:40.486Z,49.20
2022-09-15T13:43:25.556Z,49.20
2022-09-15T13:46:07.762Z,49.20
2022-09-15T13:48:34.532Z,48.80
2022-09-15T13:51:02.298Z,49.20
2022-09-15T13:53:35.182Z,48.90
2022-09-15T13:56:03.094Z,49.30
2022-09-15T14:01:18.066Z,49.40
2022-09-15T14:03:52.496Z,49.40
2022-09-15T14:06:23.240Z,49.60
2022-09-15T14:08:51.233Z,49.70
2022-09-15T14:11:21.700Z,49.60
2022-09-15T14:13:48.806Z,50.20
2022-09-15T14:16:34.505Z,49.70
2022-09-15T14:19:01.833Z,50.00
2022-09-15T14:21:32.282Z,49.90
2022-09-15T14:24:00.547Z,50.20
2022-09-15T14:26:28.476Z,50.90
2022-09-15T14:29:00.165Z,50.60
2022-09-15T14:31:47.307Z,50.40
2022-09-15T14:34:17.700Z,50.40
2022-09-15T14:36:44.426Z,50.30
2022-09-15T14:39:11.143Z,50.70
2022-09-15T14:41:38.285Z,50.90
2022-09-15T14:47:10.940Z,51.20
2022-09-15T14:49:37.719Z,51.50
2022-09-15T14:52:04.525Z,51.50
2022-09-15T14:54:33.200Z,51.50
2022-09-15T14:57:00.949Z,51.20
2022-09-15T14:59:47.916Z,51.30
2022-09-15T15:02:30.820Z,51.80
2022-09-15T15:05:08.739Z,52.00
2022-09-15T15:07:36.047Z,51.70
2022-09-15T15:10:04.454Z,51.20
2022-09-15T15:12:40.909Z,51.40
2022-09-15T15:15:07.886Z,51.90
2022-09-15T15:17:35.519Z,52.00
2022-09-15T15:20:08.101Z,52.20
2022-09-15T15:22:35.062Z,52.50
2022-09-15T15:25:01.807Z,52.70
2022-09-15T15:27:34.697Z,52.80
2022-09-15T15:30:20.395Z,53.00
2022-09-15T15:32:47.151Z,53.00
2022-09-15T15:35:14.280Z,52.60
2022-09-15T15:37:40.997Z,53.10
2022-09-15T15:40:12.834Z,52.80
2022-09-15T15:42:50.768Z,53.10
2022-09-15T15:45:22.044Z,53.20
2022-09-15T15:47:48.844Z,53.40
2022-09-15T15:50:21.816Z,53.80
2022-09-15T15:52:48.888Z,53.80
2022-09-15T15:55:16.455Z,53.70
2022-09-15T15:57:43.294Z,53.90
2022-09-15T16:00:33.305Z,54.00
2022-09-15T16:03:00.110Z,54.60
2022-09-15T16:05:27.272Z,54.90
2022-09-15T16:07:54.006Z,55.10
2022-09-15T16:10:21.510Z,54.70
2022-09-15T16:12:48.270Z,55.60
2022-09-15T16:15:18.937Z,55.80
2022-09-15T16:17:46.869Z,56.00
2022-09-15T16:20:16.054Z,55.90
2022-09-15T16:22:43.308Z,56.40
2022-09-15T16:25:21.504Z,56.60
2022-09-15T16:27:48.356Z,56.70
2022-09-15T16:30:15.087Z,56.80
2022-09-15T16:32:41.857Z,57.10
2022-09-15T16:35:27.246Z,57.20
2022-09-15T16:37:54.033Z,57.10
2022-09-15T16:40:27.604Z,57.20
2022-09-15T16:43:00.606Z,57.30
2022-09-15T16:45:36.685Z,57.40
2022-09-15T16:48:13.611Z,57.70
2022-09-15T16:50:50.280Z,58.00
2022-09-15T16:53:29.566Z,57.90
2022-09-15T16:55:56.388Z,58.00
2022-09-15T16:58:29.588Z,57.80
2022-09-15T17:00:57.094Z,57.70
2022-09-15T17:03:30.588Z,57.80
2022-09-15T17:05:58.887Z,58.00
2022-09-15T17:08:29.128Z,58.00
2022-09-15T17:10:56.298Z,57.80
2022-09-15T17:13:26.342Z,58.00
2022-09-15T17:15:56.333Z,57.80
2022-09-15T17:18:23.203Z,57.50
2022-09-15T17:20:50.192Z,57.70
2022-09-15T17:23:27.823Z,57.80
2022-09-15T17:25:57.478Z,57.80
2022-09-15T17:28:24.930Z,57.90
2022-09-15T17:30:52.555Z,58.00
2022-09-15T17:33:19.790Z,58.00
2022-09-15T17:35:46.692Z,58.00
2022-09-15T17:38:13.488Z,57.60
2022-09-15T17:40:40.232Z,57.70
2022-09-15T17:43:07.202Z,57.30
2022-09-15T17:45:34.714Z,57.20
2022-09-15T17:48:02.217Z,57.30
2022-09-15T17:50:29.492Z,57.40
2022-09-15T17:52:56.470Z,57.60
2022-09-15T17:55:27.213Z,58.30
2022-09-15T17:57:54.233Z,57.80
2022-09-15T18:00:21.149Z,57.60
2022-09-15T18:02:48.751Z,57.70
2022-09-15T18:05:18.555Z,57.60
2022-09-15T18:07:45.506Z,57.40
2022-09-15T18:10:12.299Z,57.50
2022-09-15T18:12:40.272Z,57.80
2022-09-15T18:15:13.456Z,57.90
2022-09-15T18:17:40.265Z,57.70
2022-09-15T18:20:07.270Z,58.00
2022-09-15T18:22:34.014Z,58.20
2022-09-15T18:25:00.739Z,58.30
2022-09-15T18:27:27.482Z,58.40
2022-09-15T18:29:54.198Z,58.40
2022-09-15T18:32:20.941Z,58.30
2022-09-15T18:34:49.089Z,58.50
2022-09-15T18:37:15.903Z,58.50
2022-09-15T18:39:42.685Z,58.00
2022-09-15T18:42:10.214Z,58.10
2022-09-15T18:44:36.995Z,57.80
2022-09-15T18:47:03.727Z,57.70
2022-09-15T18:49:30.454Z,57.60
2022-09-15T18:51:57.261Z,57.80
2022-09-15T18:54:24.019Z,58.10
2022-09-15T18:56:51.511Z,57.90
2022-09-15T18:59:18.248Z,57.80
2022-09-15T19:01:45.270Z,58.00
2022-09-15T19:04:12.117Z,58.00
2022-09-15T19:06:38.852Z,58.20
2022-09-15T19:09:05.581Z,58.50
2022-09-15T19:11:32.309Z,58.10
2022-09-15T19:13:59.146Z,58.10
2022-09-15T19:16:34.537Z,58.30
2022-09-15T19:19:07.134Z,58.40
2022-09-15T19:21:33.988Z,58.60
2022-09-15T19:24:00.760Z,58.80
2022-09-15T19:26:29.533Z,59.10
2022-09-15T19:28:56.643Z,59.70
2022-09-15T19:31:24.041Z,59.50
2022-09-15T19:33:50.860Z,59.30
2022-09-15T19:36:27.927Z,59.30
2022-09-15T19:38:56.045Z,59.40
2022-09-15T19:41:22.831Z,59.40
2022-09-15T19:43:49.590Z,59.50
2022-09-15T19:46:20.271Z,59.70
2022-09-15T19:48:49.977Z,59.90
2022-09-15T19:51:16.950Z,60.10
2022-09-15T19:53:44.157Z,60.40
2022-09-15T19:56:17.149Z,60.80
2022-09-15T19:58:44.439Z,60.90
2022-09-15T20:01:11.349Z,61.00
2022-09-15T20:06:22.241Z,60.70
2022-09-15T20:08:51.654Z,60.30
2022-09-15T20:11:18.732Z,59.90
2022-09-15T20:13:45.492Z,59.60
2022-09-15T20:16:16.352Z,59.60
2022-09-15T20:18:43.447Z,59.50
2022-09-15T20:21:12.373Z,58.80
2022-09-15T20:23:48.609Z,62.00
2022-09-15T20:26:15.690Z,65.60
2022-09-15T20:28:42.681Z,68.50
2022-09-15T20:31:09.516Z,71.70
2022-09-15T20:33:36.876Z,73.70
2022-09-15T20:36:04.997Z,75.20
2022-09-15T20:38:32.193Z,77.50
2022-09-15T20:40:59.344Z,79.10
2022-09-15T20:43:26.670Z,80.80
2022-09-15T20:45:57.142Z,83.00
2022-09-15T20:48:23.964Z,84.40
2022-09-15T20:50:50.714Z,85.90
2022-09-15T20:53:17.500Z,86.70
2022-09-15T20:55:50.440Z,89.00
2022-09-15T20:58:17.219Z,90.30
2022-09-15T21:00:44.018Z,91.20
2022-09-15T21:03:10.790Z,92.60
2022-09-15T21:05:37.607Z,94.10
2022-09-15T21:08:05.212Z,95.00
2022-09-15T21:10:31.954Z,96.10
2022-09-15T21:12:58.681Z,97.50
2022-09-15T21:15:25.423Z,98.70
2022-09-15T21:17:52.235Z,99.50
2022-09-15T21:20:19.079Z,97.20
2022-09-15T21:22:45.804Z,96.80
2022-09-15T21:25:12.548Z,97.70
2022-09-15T21:27:39.793Z,98.30
2022-09-15T21:30:06.823Z,98.40
2022-09-15T21:32:33.911Z,97.00
2022-09-15T21:35:00.669Z,96.30
2022-09-15T21:37:27.916Z,94.60
2022-09-15T21:39:54.833Z,94.60
2022-09-15T21:42:22.232Z,94.00
2022-09-15T21:44:48.993Z,94.90
2022-09-15T21:47:15.962Z,95.50
2022-09-15T21:49:42.718Z,96.00
2022-09-15T21:52:09.445Z,95.80
2022-09-15T21:54:36.184Z,96.30
2022-09-15T21:57:02.933Z,96.30
2022-09-15T21:59:29.699Z,96.90
2022-09-15T22:01:57.749Z,97.30
2022-09-15T22:04:24.646Z,97.50
2022-09-15T22:06:52.513Z,97.50
2022-09-15T22:09:22.301Z,96.70
2022-09-15T22:11:49.251Z,96.10
2022-09-15T22:14:16.007Z,96.50
2022-09-15T22:16:42.939Z,96.80
2022-09-15T22:19:10.233Z,96.90
2022-09-15T22:21:39.541Z,96.90
2022-09-15T22:24:07.242Z,96.30
2022-09-15T22:26:34.765Z,96.40
2022-09-15T22:29:01.691Z,96.30
2022-09-15T22:31:28.648Z,95.80
2022-09-15T22:33:55.498Z,95.30
2022-09-15T22:36:28.570Z,94.60
2022-09-15T22:38:56.369Z,94.50
2022-09-15T22:41:25.916Z,94.60
2022-09-15T22:43:52.687Z,94.50
2022-09-15T22:46:19.631Z,94.10
2022-09-15T22:48:46.509Z,94.60
2022-09-15T22:51:13.443Z,94.70
2022-09-15T22:53:40.200Z,94.70
2022-09-15T22:56:23.241Z,95.20
2022-09-15T22:58:50.219Z,95.90
2022-09-15T23:01:17.883Z,96.60
2022-09-15T23:03:47.615Z,97.70
2022-09-15T23:06:14.631Z,98.90
2022-09-15T23:08:41.400Z,99.90
2022-09-15T23:11:09.044Z,99.90
2022-09-15T23:13:35.786Z,99.90
2022-09-15T23:16:02.681Z,99.90
2022-09-15T23:18:29.558Z,99.90
2022-09-15T23:20:57.099Z,99.90
2022-09-15T23:23:23.900Z,99.90
2022-09-15T23:25:50.663Z,99.90
2022-09-15T23:28:17.446Z,99.90
2022-09-15T23:30:44.155Z,99.90
2022-09-15T23:33:10.906Z,99.90
2022-09-15T23:35:37.691Z,99.90
2022-09-15T23:38:04.410Z,99.90
2022-09-15T23:40:31.249Z,99.90
2022-09-15T23:42:58.025Z,99.90
2022-09-15T23:45:24.752Z,99.90
2022-09-15T23:47:51.602Z,99.90
2022-09-15T23:50:18.355Z,99.90
2022-09-15T23:52:45.058Z,99.90
2022-09-15T23:55:11.798Z,99.90
2022-09-15T23:57:38.585Z,99.90
